sensor_id;sensor_type;location;lat;lon;timestamp;P1;durP1;ratioP1;P2;durP2;ratioP2
54247;SDS011;40161;39.768;2.722;2024-02-21T00:00:52;6.22;;;2.10;;
54247;SDS011;40161;39.768;2.722;2024-02-21T00:03:18;5.32;;;2.20;;
54247;SDS011;40161;39.768;2.722;2024-02-21T00:05:43;4.55;;;2.13;;
54247;SDS011;40161;39.768;2.722;2024-02-21T00:08:09;6.55;;;2.78;;
54247;SDS011;40161;39.768;2.722;2024-02-21T00:10:34;3.38;;;1.63;;
54247;SDS011;40161;39.768;2.722;2024-02-21T00:13:00;5.43;;;3.22;;
54247;SDS011;40161;39.768;2.722;2024-02-21T00:15:26;5.90;;;2.80;;
54247;SDS011;40161;39.768;2.722;2024-02-21T00:17:52;5.25;;;2.60;;
54247;SDS011;40161;39.768;2.722;2024-02-21T00:20:18;5.18;;;1.95;;
54247;SDS011;40161;39.768;2.722;2024-02-21T00:22:44;4.32;;;1.70;;
54247;SDS011;40161;39.768;2.722;2024-02-21T00:25:09;4.80;;;1.95;;
54247;SDS011;40161;39.768;2.722;2024-02-21T00:27:35;5.85;;;2.55;;
54247;SDS011;40161;39.768;2.722;2024-02-21T00:30:01;5.18;;;1.70;;
54247;SDS011;40161;39.768;2.722;2024-02-21T00:32:27;4.40;;;1.77;;
54247;SDS011;40161;39.768;2.722;2024-02-21T00:34:53;8.65;;;2.90;;
54247;SDS011;40161;39.768;2.722;2024-02-21T00:37:18;4.53;;;2.47;;
54247;SDS011;40161;39.768;2.722;2024-02-21T00:39:44;3.88;;;1.75;;
54247;SDS011;40161;39.768;2.722;2024-02-21T00:42:09;5.30;;;1.90;;
54247;SDS011;40161;39.768;2.722;2024-02-21T00:44:35;5.05;;;2.03;;
54247;SDS011;40161;39.768;2.722;2024-02-21T00:47:01;5.60;;;3.33;;
54247;SDS011;40161;39.768;2.722;2024-02-21T00:49:27;6.88;;;3.25;;
54247;SDS011;40161;39.768;2.722;2024-02-21T00:51:52;7.15;;;3.05;;
54247;SDS011;40161;39.768;2.722;2024-02-21T00:54:18;7.28;;;3.33;;
54247;SDS011;40161;39.768;2.722;2024-02-21T00:56:44;5.53;;;2.20;;
54247;SDS011;40161;39.768;2.722;2024-02-21T00:59:09;5.55;;;2.08;;
54247;SDS011;40161;39.768;2.722;2024-02-21T01:01:35;5.30;;;2.80;;
54247;SDS011;40161;39.768;2.722;2024-02-21T01:04:00;5.82;;;1.98;;
54247;SDS011;40161;39.768;2.722;2024-02-21T01:06:26;3.90;;;1.80;;
54247;SDS011;40161;39.768;2.722;2024-02-21T01:08:52;6.13;;;2.15;;
54247;SDS011;40161;39.768;2.722;2024-02-21T01:11:17;5.35;;;1.70;;
54247;SDS011;40161;39.768;2.722;2024-02-21T01:13:43;3.25;;;1.65;;
54247;SDS011;40161;39.768;2.722;2024-02-21T01:16:09;5.13;;;1.92;;
54247;SDS011;40161;39.768;2.722;2024-02-21T01:18:37;5.25;;;1.77;;
54247;SDS011;40161;39.768;2.722;2024-02-21T01:21:04;6.45;;;3.40;;
54247;SDS011;40161;39.768;2.722;2024-02-21T01:23:36;3.80;;;1.75;;
54247;SDS011;40161;39.768;2.722;2024-02-21T01:26:03;6.03;;;1.80;;
54247;SDS011;40161;39.768;2.722;2024-02-21T01:28:29;5.47;;;2.22;;
54247;SDS011;40161;39.768;2.722;2024-02-21T01:30:56;4.60;;;1.88;;
54247;SDS011;40161;39.768;2.722;2024-02-21T01:33:22;3.35;;;1.55;;
54247;SDS011;40161;39.768;2.722;2024-02-21T01:35:47;4.68;;;2.10;;
54247;SDS011;40161;39.768;2.722;2024-02-21T01:38:14;2.33;;;1.50;;
54247;SDS011;40161;39.768;2.722;2024-02-21T01:40:40;3.85;;;1.67;;
54247;SDS011;40161;39.768;2.722;2024-02-21T01:43:15;4.85;;;1.90;;
54247;SDS011;40161;39.768;2.722;2024-02-21T01:45:43;4.53;;;2.15;;
54247;SDS011;40161;39.768;2.722;2024-02-21T01:48:12;4.28;;;1.77;;
54247;SDS011;40161;39.768;2.722;2024-02-21T01:50:38;4.72;;;1.52;;
54247;SDS011;40161;39.768;2.722;2024-02-21T01:53:07;3.47;;;1.45;;
54247;SDS011;40161;39.768;2.722;2024-02-21T01:55:43;3.20;;;1.45;;
54247;SDS011;40161;39.768;2.722;2024-02-21T01:58:13;5.22;;;1.40;;
54247;SDS011;40161;39.768;2.722;2024-02-21T02:00:40;5.00;;;1.73;;
54247;SDS011;40161;39.768;2.722;2024-02-21T02:03:09;3.83;;;1.70;;
54247;SDS011;40161;39.768;2.722;2024-02-21T02:05:42;3.00;;;1.13;;
54247;SDS011;40161;39.768;2.722;2024-02-21T02:08:12;4.70;;;1.52;;
54247;SDS011;40161;39.768;2.722;2024-02-21T02:10:39;3.70;;;1.20;;
54247;SDS011;40161;39.768;2.722;2024-02-21T02:13:05;3.55;;;1.27;;
54247;SDS011;40161;39.768;2.722;2024-02-21T02:15:41;3.15;;;1.20;;
54247;SDS011;40161;39.768;2.722;2024-02-21T02:18:07;3.60;;;1.50;;
54247;SDS011;40161;39.768;2.722;2024-02-21T02:20:33;4.93;;;1.58;;
54247;SDS011;40161;39.768;2.722;2024-02-21T02:23:00;3.70;;;1.30;;
54247;SDS011;40161;39.768;2.722;2024-02-21T02:25:40;4.07;;;1.50;;
54247;SDS011;40161;39.768;2.722;2024-02-21T02:28:06;4.43;;;1.48;;
54247;SDS011;40161;39.768;2.722;2024-02-21T02:30:33;4.35;;;1.58;;
54247;SDS011;40161;39.768;2.722;2024-02-21T02:32:59;3.45;;;1.60;;
54247;SDS011;40161;39.768;2.722;2024-02-21T02:35:25;2.92;;;1.30;;
54247;SDS011;40161;39.768;2.722;2024-02-21T02:37:51;5.32;;;1.25;;
54247;SDS011;40161;39.768;2.722;2024-02-21T02:40:17;5.40;;;1.50;;
54247;SDS011;40161;39.768;2.722;2024-02-21T02:42:43;3.50;;;1.30;;
54247;SDS011;40161;39.768;2.722;2024-02-21T02:45:09;3.10;;;1.23;;
54247;SDS011;40161;39.768;2.722;2024-02-21T02:47:35;3.60;;;1.48;;
54247;SDS011;40161;39.768;2.722;2024-02-21T02:50:01;5.05;;;1.30;;
54247;SDS011;40161;39.768;2.722;2024-02-21T02:52:26;3.13;;;1.40;;
54247;SDS011;40161;39.768;2.722;2024-02-21T02:54:52;5.13;;;2.05;;
54247;SDS011;40161;39.768;2.722;2024-02-21T02:57:20;3.80;;;1.40;;
54247;SDS011;40161;39.768;2.722;2024-02-21T02:59:49;4.53;;;1.40;;
54247;SDS011;40161;39.768;2.722;2024-02-21T03:02:16;3.47;;;1.67;;
54247;SDS011;40161;39.768;2.722;2024-02-21T03:04:42;4.22;;;1.35;;
54247;SDS011;40161;39.768;2.722;2024-02-21T03:07:08;4.90;;;1.65;;
54247;SDS011;40161;39.768;2.722;2024-02-21T03:09:33;3.90;;;1.20;;
54247;SDS011;40161;39.768;2.722;2024-02-21T03:11:59;4.68;;;1.52;;
54247;SDS011;40161;39.768;2.722;2024-02-21T03:14:28;3.80;;;1.20;;
54247;SDS011;40161;39.768;2.722;2024-02-21T03:16:54;3.22;;;1.35;;
54247;SDS011;40161;39.768;2.722;2024-02-21T03:19:19;3.80;;;1.40;;
54247;SDS011;40161;39.768;2.722;2024-02-21T03:21:45;3.78;;;1.50;;
54247;SDS011;40161;39.768;2.722;2024-02-21T03:24:11;4.95;;;1.60;;
54247;SDS011;40161;39.768;2.722;2024-02-21T03:26:36;5.07;;;2.08;;
54247;SDS011;40161;39.768;2.722;2024-02-21T03:29:03;2.70;;;1.40;;
54247;SDS011;40161;39.768;2.722;2024-02-21T03:31:29;3.63;;;1.50;;
54247;SDS011;40161;39.768;2.722;2024-02-21T03:33:54;4.15;;;1.80;;
54247;SDS011;40161;39.768;2.722;2024-02-21T03:36:20;3.55;;;1.70;;
54247;SDS011;40161;39.768;2.722;2024-02-21T03:38:46;3.88;;;1.85;;
54247;SDS011;40161;39.768;2.722;2024-02-21T03:41:12;3.47;;;1.75;;
54247;SDS011;40161;39.768;2.722;2024-02-21T03:43:38;3.65;;;1.52;;
54247;SDS011;40161;39.768;2.722;2024-02-21T03:46:04;5.00;;;2.53;;
54247;SDS011;40161;39.768;2.722;2024-02-21T03:48:30;6.78;;;1.77;;
54247;SDS011;40161;39.768;2.722;2024-02-21T03:50:56;7.05;;;1.90;;
54247;SDS011;40161;39.768;2.722;2024-02-21T03:53:21;5.22;;;1.77;;
54247;SDS011;40161;39.768;2.722;2024-02-21T03:55:47;6.63;;;2.08;;
54247;SDS011;40161;39.768;2.722;2024-02-21T03:58:12;3.13;;;1.58;;
54247;SDS011;40161;39.768;2.722;2024-02-21T04:00:38;3.55;;;1.42;;
54247;SDS011;40161;39.768;2.722;2024-02-21T04:03:04;2.65;;;1.40;;
54247;SDS011;40161;39.768;2.722;2024-02-21T04:05:30;4.00;;;1.40;;
54247;SDS011;40161;39.768;2.722;2024-02-21T04:07:56;3.42;;;1.48;;
54247;SDS011;40161;39.768;2.722;2024-02-21T04:10:22;3.13;;;1.40;;
54247;SDS011;40161;39.768;2.722;2024-02-21T04:12:47;3.20;;;1.38;;
54247;SDS011;40161;39.768;2.722;2024-02-21T04:15:15;2.53;;;1.40;;
54247;SDS011;40161;39.768;2.722;2024-02-21T04:17:41;3.67;;;1.48;;
54247;SDS011;40161;39.768;2.722;2024-02-21T04:20:13;3.38;;;1.60;;
54247;SDS011;40161;39.768;2.722;2024-02-21T04:22:40;3.33;;;1.60;;
54247;SDS011;40161;39.768;2.722;2024-02-21T04:25:05;4.60;;;1.67;;
54247;SDS011;40161;39.768;2.722;2024-02-21T04:27:31;3.08;;;1.40;;
54247;SDS011;40161;39.768;2.722;2024-02-21T04:29:57;2.75;;;1.30;;
54247;SDS011;40161;39.768;2.722;2024-02-21T04:32:22;3.90;;;1.80;;
54247;SDS011;40161;39.768;2.722;2024-02-21T04:34:48;3.08;;;1.60;;
54247;SDS011;40161;39.768;2.722;2024-02-21T04:37:14;5.05;;;1.88;;
54247;SDS011;40161;39.768;2.722;2024-02-21T04:39:39;2.83;;;1.50;;
54247;SDS011;40161;39.768;2.722;2024-02-21T04:42:05;4.65;;;1.90;;
54247;SDS011;40161;39.768;2.722;2024-02-21T04:44:31;3.47;;;1.60;;
54247;SDS011;40161;39.768;2.722;2024-02-21T04:46:57;3.58;;;1.67;;
54247;SDS011;40161;39.768;2.722;2024-02-21T04:49:22;2.83;;;1.50;;
54247;SDS011;40161;39.768;2.722;2024-02-21T04:51:48;2.78;;;1.20;;
54247;SDS011;40161;39.768;2.722;2024-02-21T04:54:13;1.75;;;1.20;;
54247;SDS011;40161;39.768;2.722;2024-02-21T04:56:39;3.42;;;1.77;;
54247;SDS011;40161;39.768;2.722;2024-02-21T04:59:04;3.53;;;1.33;;
54247;SDS011;40161;39.768;2.722;2024-02-21T05:01:30;3.47;;;1.50;;
54247;SDS011;40161;39.768;2.722;2024-02-21T05:03:56;3.42;;;1.73;;
54247;SDS011;40161;39.768;2.722;2024-02-21T05:06:21;4.20;;;1.77;;
54247;SDS011;40161;39.768;2.722;2024-02-21T05:08:47;6.38;;;2.58;;
54247;SDS011;40161;39.768;2.722;2024-02-21T05:11:13;5.65;;;1.92;;
54247;SDS011;40161;39.768;2.722;2024-02-21T05:13:38;5.55;;;2.13;;
54247;SDS011;40161;39.768;2.722;2024-02-21T05:16:04;2.92;;;1.63;;
54247;SDS011;40161;39.768;2.722;2024-02-21T05:18:30;5.00;;;2.03;;
54247;SDS011;40161;39.768;2.722;2024-02-21T05:20:56;5.25;;;2.67;;
54247;SDS011;40161;39.768;2.722;2024-02-21T05:23:21;4.82;;;2.85;;
54247;SDS011;40161;39.768;2.722;2024-02-21T05:25:47;3.63;;;1.73;;
54247;SDS011;40161;39.768;2.722;2024-02-21T05:28:12;4.40;;;1.83;;
54247;SDS011;40161;39.768;2.722;2024-02-21T05:30:38;4.72;;;2.13;;
54247;SDS011;40161;39.768;2.722;2024-02-21T05:33:07;5.28;;;2.38;;
54247;SDS011;40161;39.768;2.722;2024-02-21T05:35:33;10.02;;;4.28;;
54247;SDS011;40161;39.768;2.722;2024-02-21T05:37:59;16.02;;;7.30;;
54247;SDS011;40161;39.768;2.722;2024-02-21T05:40:25;12.18;;;5.70;;
54247;SDS011;40161;39.768;2.722;2024-02-21T05:42:51;6.50;;;3.28;;
54247;SDS011;40161;39.768;2.722;2024-02-21T05:45:17;3.78;;;1.80;;
54247;SDS011;40161;39.768;2.722;2024-02-21T05:47:43;4.55;;;1.90;;
54247;SDS011;40161;39.768;2.722;2024-02-21T05:50:09;4.22;;;1.70;;
54247;SDS011;40161;39.768;2.722;2024-02-21T05:52:35;5.85;;;2.30;;
54247;SDS011;40161;39.768;2.722;2024-02-21T05:55:01;5.57;;;2.40;;
54247;SDS011;40161;39.768;2.722;2024-02-21T05:57:26;6.35;;;2.58;;
54247;SDS011;40161;39.768;2.722;2024-02-21T05:59:52;4.07;;;1.60;;
54247;SDS011;40161;39.768;2.722;2024-02-21T06:02:18;3.42;;;1.73;;
54247;SDS011;40161;39.768;2.722;2024-02-21T06:04:43;11.98;;;4.85;;
54247;SDS011;40161;39.768;2.722;2024-02-21T06:07:09;8.70;;;4.03;;
54247;SDS011;40161;39.768;2.722;2024-02-21T06:09:36;7.82;;;3.30;;
54247;SDS011;40161;39.768;2.722;2024-02-21T06:12:02;14.38;;;6.07;;
54247;SDS011;40161;39.768;2.722;2024-02-21T06:14:28;5.72;;;2.10;;
54247;SDS011;40161;39.768;2.722;2024-02-21T06:16:53;2.67;;;1.50;;
54247;SDS011;40161;39.768;2.722;2024-02-21T06:19:19;5.93;;;1.70;;
54247;SDS011;40161;39.768;2.722;2024-02-21T06:21:44;7.38;;;3.65;;
54247;SDS011;40161;39.768;2.722;2024-02-21T06:24:10;5.20;;;1.75;;
54247;SDS011;40161;39.768;2.722;2024-02-21T06:26:37;11.52;;;5.25;;
54247;SDS011;40161;39.768;2.722;2024-02-21T06:29:02;17.80;;;7.60;;
54247;SDS011;40161;39.768;2.722;2024-02-21T06:31:28;4.97;;;1.88;;
54247;SDS011;40161;39.768;2.722;2024-02-21T06:33:54;8.50;;;2.47;;
54247;SDS011;40161;39.768;2.722;2024-02-21T06:36:19;15.45;;;6.20;;
54247;SDS011;40161;39.768;2.722;2024-02-21T06:38:45;12.32;;;5.22;;
54247;SDS011;40161;39.768;2.722;2024-02-21T06:41:17;12.05;;;5.78;;
54247;SDS011;40161;39.768;2.722;2024-02-21T06:43:44;7.82;;;3.97;;
54247;SDS011;40161;39.768;2.722;2024-02-21T06:46:11;20.17;;;7.15;;
54247;SDS011;40161;39.768;2.722;2024-02-21T06:48:37;17.70;;;8.55;;
54247;SDS011;40161;39.768;2.722;2024-02-21T06:51:03;9.85;;;6.03;;
54247;SDS011;40161;39.768;2.722;2024-02-21T06:53:29;7.07;;;4.03;;
54247;SDS011;40161;39.768;2.722;2024-02-21T06:55:55;9.20;;;2.92;;
54247;SDS011;40161;39.768;2.722;2024-02-21T06:58:20;10.40;;;4.05;;
54247;SDS011;40161;39.768;2.722;2024-02-21T07:00:46;16.88;;;7.90;;
54247;SDS011;40161;39.768;2.722;2024-02-21T07:03:11;10.95;;;6.38;;
54247;SDS011;40161;39.768;2.722;2024-02-21T07:05:37;10.27;;;5.40;;
54247;SDS011;40161;39.768;2.722;2024-02-21T07:08:03;11.65;;;6.30;;
54247;SDS011;40161;39.768;2.722;2024-02-21T07:10:29;11.57;;;6.32;;
54247;SDS011;40161;39.768;2.722;2024-02-21T07:12:54;11.05;;;3.30;;
54247;SDS011;40161;39.768;2.722;2024-02-21T07:15:20;5.10;;;2.40;;
54247;SDS011;40161;39.768;2.722;2024-02-21T07:17:46;4.80;;;2.28;;
54247;SDS011;40161;39.768;2.722;2024-02-21T07:20:12;6.00;;;2.28;;
54247;SDS011;40161;39.768;2.722;2024-02-21T07:22:37;5.47;;;2.85;;
54247;SDS011;40161;39.768;2.722;2024-02-21T07:25:03;7.18;;;4.03;;
54247;SDS011;40161;39.768;2.722;2024-02-21T07:27:29;5.47;;;3.20;;
54247;SDS011;40161;39.768;2.722;2024-02-21T07:29:56;7.68;;;3.20;;
54247;SDS011;40161;39.768;2.722;2024-02-21T07:32:22;8.98;;;3.70;;
54247;SDS011;40161;39.768;2.722;2024-02-21T07:34:47;9.95;;;5.95;;
54247;SDS011;40161;39.768;2.722;2024-02-21T07:37:13;13.88;;;10.48;;
54247;SDS011;40161;39.768;2.722;2024-02-21T07:39:39;9.05;;;5.65;;
54247;SDS011;40161;39.768;2.722;2024-02-21T07:42:04;13.48;;;5.60;;
54247;SDS011;40161;39.768;2.722;2024-02-21T07:44:30;14.43;;;7.35;;
54247;SDS011;40161;39.768;2.722;2024-02-21T07:46:57;8.50;;;5.00;;
54247;SDS011;40161;39.768;2.722;2024-02-21T07:49:23;9.43;;;5.18;;
54247;SDS011;40161;39.768;2.722;2024-02-21T07:51:49;9.48;;;5.35;;
54247;SDS011;40161;39.768;2.722;2024-02-21T07:54:15;8.07;;;5.50;;
54247;SDS011;40161;39.768;2.722;2024-02-21T07:56:41;254.95;;;129.98;;
54247;SDS011;40161;39.768;2.722;2024-02-21T07:59:06;348.45;;;193.77;;
54247;SDS011;40161;39.768;2.722;2024-02-21T08:01:33;389.02;;;210.50;;
54247;SDS011;40161;39.768;2.722;2024-02-21T08:03:58;491.48;;;263.48;;
54247;SDS011;40161;39.768;2.722;2024-02-21T08:06:24;92.25;;;51.83;;
54247;SDS011;40161;39.768;2.722;2024-02-21T08:08:50;40.60;;;24.45;;
54247;SDS011;40161;39.768;2.722;2024-02-21T08:11:15;23.60;;;14.82;;
54247;SDS011;40161;39.768;2.722;2024-02-21T08:13:41;16.20;;;10.10;;
54247;SDS011;40161;39.768;2.722;2024-02-21T08:16:07;13.20;;;8.13;;
54247;SDS011;40161;39.768;2.722;2024-02-21T08:18:32;16.23;;;9.70;;
54247;SDS011;40161;39.768;2.722;2024-02-21T08:21:02;26.52;;;16.52;;
54247;SDS011;40161;39.768;2.722;2024-02-21T08:23:28;37.67;;;20.88;;
54247;SDS011;40161;39.768;2.722;2024-02-21T08:25:54;32.30;;;19.20;;
54247;SDS011;40161;39.768;2.722;2024-02-21T08:28:19;35.05;;;17.35;;
54247;SDS011;40161;39.768;2.722;2024-02-21T08:30:45;17.80;;;10.27;;
54247;SDS011;40161;39.768;2.722;2024-02-21T08:33:14;10.52;;;6.60;;
54247;SDS011;40161;39.768;2.722;2024-02-21T08:35:40;12.02;;;6.90;;
54247;SDS011;40161;39.768;2.722;2024-02-21T08:38:06;10.85;;;6.10;;
54247;SDS011;40161;39.768;2.722;2024-02-21T08:40:31;12.15;;;6.60;;
54247;SDS011;40161;39.768;2.722;2024-02-21T08:43:00;11.20;;;6.30;;
54247;SDS011;40161;39.768;2.722;2024-02-21T08:45:25;9.68;;;5.90;;
54247;SDS011;40161;39.768;2.722;2024-02-21T08:47:51;8.95;;;5.70;;
54247;SDS011;40161;39.768;2.722;2024-02-21T08:50:16;8.98;;;5.20;;
54247;SDS011;40161;39.768;2.722;2024-02-21T08:52:42;8.55;;;4.03;;
54247;SDS011;40161;39.768;2.722;2024-02-21T08:55:08;9.80;;;4.00;;
54247;SDS011;40161;39.768;2.722;2024-02-21T08:57:33;5.03;;;3.15;;
54247;SDS011;40161;39.768;2.722;2024-02-21T09:00:03;7.72;;;4.78;;
54247;SDS011;40161;39.768;2.722;2024-02-21T09:02:40;8.77;;;4.00;;
54247;SDS011;40161;39.768;2.722;2024-02-21T09:05:09;8.95;;;5.63;;
54247;SDS011;40161;39.768;2.722;2024-02-21T09:07:35;11.50;;;6.57;;
54247;SDS011;40161;39.768;2.722;2024-02-21T09:10:01;14.52;;;7.82;;
54247;SDS011;40161;39.768;2.722;2024-02-21T09:12:28;15.43;;;9.50;;
54247;SDS011;40161;39.768;2.722;2024-02-21T09:14:54;24.15;;;12.82;;
54247;SDS011;40161;39.768;2.722;2024-02-21T09:17:21;26.95;;;15.55;;
54247;SDS011;40161;39.768;2.722;2024-02-21T09:19:47;21.77;;;12.43;;
54247;SDS011;40161;39.768;2.722;2024-02-21T09:22:13;17.67;;;9.48;;
54247;SDS011;40161;39.768;2.722;2024-02-21T09:24:39;17.33;;;9.90;;
54247;SDS011;40161;39.768;2.722;2024-02-21T09:27:05;13.95;;;7.90;;
54247;SDS011;40161;39.768;2.722;2024-02-21T09:29:31;9.30;;;5.05;;
54247;SDS011;40161;39.768;2.722;2024-02-21T09:31:58;12.35;;;4.60;;
54247;SDS011;40161;39.768;2.722;2024-02-21T09:34:24;6.80;;;3.47;;
54247;SDS011;40161;39.768;2.722;2024-02-21T09:36:50;5.63;;;2.67;;
54247;SDS011;40161;39.768;2.722;2024-02-21T09:39:16;5.60;;;2.97;;
54247;SDS011;40161;39.768;2.722;2024-02-21T09:41:48;6.20;;;2.88;;
54247;SDS011;40161;39.768;2.722;2024-02-21T09:44:20;7.40;;;3.30;;
54247;SDS011;40161;39.768;2.722;2024-02-21T09:46:57;4.20;;;2.63;;
54247;SDS011;40161;39.768;2.722;2024-02-21T09:49:30;6.15;;;2.10;;
54247;SDS011;40161;39.768;2.722;2024-02-21T09:52:03;3.63;;;1.67;;
54247;SDS011;40161;39.768;2.722;2024-02-21T09:54:30;6.30;;;2.30;;
54247;SDS011;40161;39.768;2.722;2024-02-21T09:56:59;5.90;;;2.85;;
54247;SDS011;40161;39.768;2.722;2024-02-21T09:59:25;5.97;;;2.70;;
54247;SDS011;40161;39.768;2.722;2024-02-21T10:01:53;6.22;;;3.42;;
54247;SDS011;40161;39.768;2.722;2024-02-21T10:04:19;5.53;;;2.33;;
54247;SDS011;40161;39.768;2.722;2024-02-21T10:06:45;4.90;;;2.10;;
54247;SDS011;40161;39.768;2.722;2024-02-21T10:09:21;6.10;;;2.42;;
54247;SDS011;40161;39.768;2.722;2024-02-21T10:11:53;5.45;;;2.22;;
54247;SDS011;40161;39.768;2.722;2024-02-21T10:14:20;4.57;;;1.90;;
54247;SDS011;40161;39.768;2.722;2024-02-21T10:16:55;4.30;;;1.90;;
54247;SDS011;40161;39.768;2.722;2024-02-21T10:19:26;4.90;;;2.10;;
54247;SDS011;40161;39.768;2.722;2024-02-21T10:22:01;3.97;;;1.80;;
54247;SDS011;40161;39.768;2.722;2024-02-21T10:27:03;5.95;;;2.30;;
54247;SDS011;40161;39.768;2.722;2024-02-21T10:29:33;4.93;;;2.00;;
54247;SDS011;40161;39.768;2.722;2024-02-21T10:34:35;4.75;;;2.38;;
54247;SDS011;40161;39.768;2.722;2024-02-21T10:37:02;5.70;;;2.67;;
54247;SDS011;40161;39.768;2.722;2024-02-21T10:39:32;4.68;;;2.30;;
54247;SDS011;40161;39.768;2.722;2024-02-21T10:42:00;5.47;;;2.85;;
54247;SDS011;40161;39.768;2.722;2024-02-21T10:44:33;7.20;;;3.60;;
54247;SDS011;40161;39.768;2.722;2024-02-21T10:47:11;8.43;;;3.88;;
54247;SDS011;40161;39.768;2.722;2024-02-21T10:49:42;7.05;;;3.85;;
54247;SDS011;40161;39.768;2.722;2024-02-21T10:57:07;5.60;;;3.13;;
54247;SDS011;40161;39.768;2.722;2024-02-21T10:59:36;6.22;;;2.83;;
54247;SDS011;40161;39.768;2.722;2024-02-21T11:02:04;6.82;;;3.67;;
54247;SDS011;40161;39.768;2.722;2024-02-21T11:04:30;8.45;;;3.65;;
54247;SDS011;40161;39.768;2.722;2024-02-21T11:07:01;8.95;;;5.93;;
54247;SDS011;40161;39.768;2.722;2024-02-21T11:09:31;9.93;;;5.82;;
54247;SDS011;40161;39.768;2.722;2024-02-21T11:12:04;8.80;;;5.00;;
54247;SDS011;40161;39.768;2.722;2024-02-21T11:14:30;6.78;;;3.90;;
54247;SDS011;40161;39.768;2.722;2024-02-21T11:17:14;6.80;;;3.45;;
54247;SDS011;40161;39.768;2.722;2024-02-21T11:19:41;8.82;;;3.60;;
54247;SDS011;40161;39.768;2.722;2024-02-21T11:22:13;10.05;;;4.82;;
54247;SDS011;40161;39.768;2.722;2024-02-21T11:24:43;6.20;;;2.95;;
54247;SDS011;40161;39.768;2.722;2024-02-21T11:27:09;13.48;;;3.85;;
54247;SDS011;40161;39.768;2.722;2024-02-21T11:29:48;7.75;;;2.55;;
54247;SDS011;40161;39.768;2.722;2024-02-21T11:32:19;6.60;;;2.42;;
54247;SDS011;40161;39.768;2.722;2024-02-21T11:34:55;6.63;;;2.90;;
54247;SDS011;40161;39.768;2.722;2024-02-21T11:37:26;6.68;;;3.20;;
54247;SDS011;40161;39.768;2.722;2024-02-21T11:39:56;6.35;;;3.00;;
54247;SDS011;40161;39.768;2.722;2024-02-21T11:42:22;6.00;;;2.92;;
54247;SDS011;40161;39.768;2.722;2024-02-21T11:44:50;5.78;;;2.25;;
54247;SDS011;40161;39.768;2.722;2024-02-21T11:47:16;4.82;;;1.85;;
54247;SDS011;40161;39.768;2.722;2024-02-21T11:49:46;4.50;;;1.83;;
54247;SDS011;40161;39.768;2.722;2024-02-21T11:52:19;7.95;;;2.30;;
54247;SDS011;40161;39.768;2.722;2024-02-21T11:54:50;6.93;;;2.13;;
54247;SDS011;40161;39.768;2.722;2024-02-21T11:57:16;5.80;;;1.83;;
54247;SDS011;40161;39.768;2.722;2024-02-21T11:59:44;6.40;;;1.55;;
54247;SDS011;40161;39.768;2.722;2024-02-21T12:02:10;5.80;;;1.60;;
54247;SDS011;40161;39.768;2.722;2024-02-21T12:04:36;4.88;;;1.80;;
54247;SDS011;40161;39.768;2.722;2024-02-21T12:07:02;6.30;;;2.08;;
54247;SDS011;40161;39.768;2.722;2024-02-21T12:09:31;8.07;;;3.53;;
54247;SDS011;40161;39.768;2.722;2024-02-21T12:11:59;6.18;;;2.60;;
54247;SDS011;40161;39.768;2.722;2024-02-21T12:14:27;7.90;;;2.80;;
54247;SDS011;40161;39.768;2.722;2024-02-21T12:16:54;6.50;;;2.17;;
54247;SDS011;40161;39.768;2.722;2024-02-21T12:19:19;13.20;;;5.00;;
54247;SDS011;40161;39.768;2.722;2024-02-21T12:21:45;6.95;;;3.17;;
54247;SDS011;40161;39.768;2.722;2024-02-21T12:24:21;5.03;;;1.70;;
54247;SDS011;40161;39.768;2.722;2024-02-21T12:26:51;5.70;;;1.95;;
54247;SDS011;40161;39.768;2.722;2024-02-21T12:29:23;5.65;;;2.42;;
54247;SDS011;40161;39.768;2.722;2024-02-21T12:31:54;4.97;;;1.48;;
54247;SDS011;40161;39.768;2.722;2024-02-21T12:34:20;18.52;;;13.85;;
54247;SDS011;40161;39.768;2.722;2024-02-21T12:36:47;19.48;;;16.98;;
54247;SDS011;40161;39.768;2.722;2024-02-21T12:39:12;9.60;;;4.30;;
54247;SDS011;40161;39.768;2.722;2024-02-21T12:41:38;6.75;;;3.67;;
54247;SDS011;40161;39.768;2.722;2024-02-21T12:44:06;5.40;;;2.38;;
54247;SDS011;40161;39.768;2.722;2024-02-21T12:46:32;5.22;;;1.90;;
54247;SDS011;40161;39.768;2.722;2024-02-21T12:48:59;6.97;;;2.03;;
54247;SDS011;40161;39.768;2.722;2024-02-21T12:51:25;6.95;;;2.30;;
54247;SDS011;40161;39.768;2.722;2024-02-21T12:53:50;12.95;;;6.53;;
54247;SDS011;40161;39.768;2.722;2024-02-21T12:56:16;6.30;;;2.50;;
54247;SDS011;40161;39.768;2.722;2024-02-21T12:58:42;5.05;;;1.52;;
54247;SDS011;40161;39.768;2.722;2024-02-21T13:01:07;5.75;;;1.55;;
54247;SDS011;40161;39.768;2.722;2024-02-21T13:03:34;7.72;;;3.05;;
54247;SDS011;40161;39.768;2.722;2024-02-21T13:05:59;6.15;;;1.38;;
54247;SDS011;40161;39.768;2.722;2024-02-21T13:08:25;6.68;;;1.27;;
54247;SDS011;40161;39.768;2.722;2024-02-21T13:10:51;6.57;;;3.30;;
54247;SDS011;40161;39.768;2.722;2024-02-21T13:13:16;6.40;;;2.70;;
54247;SDS011;40161;39.768;2.722;2024-02-21T13:15:42;4.47;;;1.35;;
54247;SDS011;40161;39.768;2.722;2024-02-21T13:18:08;7.15;;;1.80;;
54247;SDS011;40161;39.768;2.722;2024-02-21T13:20:35;4.72;;;1.65;;
54247;SDS011;40161;39.768;2.722;2024-02-21T13:23:01;4.43;;;1.98;;
54247;SDS011;40161;39.768;2.722;2024-02-21T13:25:27;5.65;;;1.52;;
54247;SDS011;40161;39.768;2.722;2024-02-21T13:27:53;5.78;;;2.28;;
54247;SDS011;40161;39.768;2.722;2024-02-21T13:30:18;5.70;;;1.88;;
54247;SDS011;40161;39.768;2.722;2024-02-21T13:32:44;5.35;;;1.70;;
54247;SDS011;40161;39.768;2.722;2024-02-21T13:35:13;6.40;;;1.50;;
54247;SDS011;40161;39.768;2.722;2024-02-21T13:37:40;6.78;;;2.00;;
54247;SDS011;40161;39.768;2.722;2024-02-21T13:40:06;7.93;;;2.83;;
54247;SDS011;40161;39.768;2.722;2024-02-21T13:42:34;5.22;;;1.70;;
54247;SDS011;40161;39.768;2.722;2024-02-21T13:45:00;5.85;;;1.95;;
54247;SDS011;40161;39.768;2.722;2024-02-21T13:47:26;6.32;;;3.10;;
54247;SDS011;40161;39.768;2.722;2024-02-21T13:49:52;3.67;;;1.50;;
54247;SDS011;40161;39.768;2.722;2024-02-21T13:52:18;5.20;;;1.80;;
54247;SDS011;40161;39.768;2.722;2024-02-21T13:54:46;4.72;;;1.38;;
54247;SDS011;40161;39.768;2.722;2024-02-21T13:57:12;4.72;;;1.30;;
54247;SDS011;40161;39.768;2.722;2024-02-21T13:59:37;4.28;;;1.40;;
54247;SDS011;40161;39.768;2.722;2024-02-21T14:02:04;5.05;;;1.30;;
54247;SDS011;40161;39.768;2.722;2024-02-21T14:04:33;5.55;;;1.38;;
54247;SDS011;40161;39.768;2.722;2024-02-21T14:06:59;7.30;;;1.40;;
54247;SDS011;40161;39.768;2.722;2024-02-21T14:09:25;5.18;;;1.13;;
54247;SDS011;40161;39.768;2.722;2024-02-21T14:11:51;5.15;;;1.70;;
54247;SDS011;40161;39.768;2.722;2024-02-21T14:14:17;4.15;;;1.30;;
54247;SDS011;40161;39.768;2.722;2024-02-21T14:16:42;2.63;;;1.20;;
54247;SDS011;40161;39.768;2.722;2024-02-21T14:19:08;4.25;;;1.30;;
54247;SDS011;40161;39.768;2.722;2024-02-21T14:21:37;4.35;;;1.20;;
54247;SDS011;40161;39.768;2.722;2024-02-21T14:24:03;6.03;;;1.30;;
54247;SDS011;40161;39.768;2.722;2024-02-21T14:26:30;5.95;;;1.45;;
54247;SDS011;40161;39.768;2.722;2024-02-21T14:28:56;5.10;;;1.42;;
54247;SDS011;40161;39.768;2.722;2024-02-21T14:31:25;3.55;;;1.25;;
54247;SDS011;40161;39.768;2.722;2024-02-21T14:33:51;3.88;;;1.17;;
54247;SDS011;40161;39.768;2.722;2024-02-21T14:36:17;5.97;;;2.70;;
54247;SDS011;40161;39.768;2.722;2024-02-21T14:38:43;5.53;;;1.77;;
54247;SDS011;40161;39.768;2.722;2024-02-21T14:41:12;4.95;;;1.30;;
54247;SDS011;40161;39.768;2.722;2024-02-21T14:43:39;4.70;;;1.80;;
54247;SDS011;40161;39.768;2.722;2024-02-21T14:46:05;4.57;;;1.10;;
54247;SDS011;40161;39.768;2.722;2024-02-21T14:48:34;3.83;;;1.17;;
54247;SDS011;40161;39.768;2.722;2024-02-21T14:51:00;5.53;;;1.83;;
54247;SDS011;40161;39.768;2.722;2024-02-21T14:53:25;4.57;;;1.67;;